sensor_id;sensor_type;location;lat;lon;timestamp;P1;durP1;ratioP1;P2;durP2;ratioP2
7813;SDS011;3952;48.364;16.022;2023-04-06T00:00:50;5.40;;;5.00;;
7813;SDS011;3952;48.364;16.022;2023-04-06T00:03:18;6.07;;;5.00;;
7813;SDS011;3952;48.364;16.022;2023-04-06T00:05:46;6.03;;;5.57;;
7813;SDS011;3952;48.364;16.022;2023-04-06T00:08:15;5.60;;;5.13;;
7813;SDS011;3952;48.364;16.022;2023-04-06T00:10:42;5.60;;;4.70;;
7813;SDS011;3952;48.364;16.022;2023-04-06T00:13:09;5.83;;;5.43;;
7813;SDS011;3952;48.364;16.022;2023-04-06T00:15:36;5.03;;;4.73;;
7813;SDS011;3952;48.364;16.022;2023-04-06T00:18:04;5.33;;;4.83;;
7813;SDS011;3952;48.364;16.022;2023-04-06T00:20:31;5.33;;;4.83;;
7813;SDS011;3952;48.364;16.022;2023-04-06T00:22:58;6.23;;;4.97;;
7813;SDS011;3952;48.364;16.022;2023-04-06T00:25:27;5.37;;;4.97;;
7813;SDS011;3952;48.364;16.022;2023-04-06T00:27:54;5.37;;;4.97;;
7813;SDS011;3952;48.364;16.022;2023-04-06T00:30:21;4.87;;;4.47;;
7813;SDS011;3952;48.364;16.022;2023-04-06T00:32:49;5.77;;;5.30;;
7813;SDS011;3952;48.364;16.022;2023-04-06T00:35:16;5.87;;;5.37;;
7813;SDS011;3952;48.364;16.022;2023-04-06T00:37:45;5.23;;;4.83;;
7813;SDS011;3952;48.364;16.022;2023-04-06T00:40:14;4.80;;;4.50;;
7813;SDS011;3952;48.364;16.022;2023-04-06T00:42:43;5.37;;;4.97;;
7813;SDS011;3952;48.364;16.022;2023-04-06T00:45:10;5.10;;;4.70;;
7813;SDS011;3952;48.364;16.022;2023-04-06T00:47:37;5.23;;;4.93;;
7813;SDS011;3952;48.364;16.022;2023-04-06T00:50:05;5.30;;;4.50;;
7813;SDS011;3952;48.364;16.022;2023-04-06T00:52:33;4.67;;;4.37;;
7813;SDS011;3952;48.364;16.022;2023-04-06T00:55:01;5.17;;;4.83;;
7813;SDS011;3952;48.364;16.022;2023-04-06T00:57:28;5.63;;;5.23;;
7813;SDS011;3952;48.364;16.022;2023-04-06T00:59:57;4.90;;;4.60;;
7813;SDS011;3952;48.364;16.022;2023-04-06T01:02:24;5.70;;;5.30;;
7813;SDS011;3952;48.364;16.022;2023-04-06T01:04:52;5.20;;;4.80;;
7813;SDS011;3952;48.364;16.022;2023-04-06T01:07:19;4.90;;;4.60;;
7813;SDS011;3952;48.364;16.022;2023-04-06T01:09:47;5.30;;;4.90;;
7813;SDS011;3952;48.364;16.022;2023-04-06T01:12:14;5.17;;;4.77;;
7813;SDS011;3952;48.364;16.022;2023-04-06T01:14:42;5.10;;;4.70;;
7813;SDS011;3952;48.364;16.022;2023-04-06T01:17:11;5.30;;;4.90;;
7813;SDS011;3952;48.364;16.022;2023-04-06T01:19:38;4.93;;;4.60;;
7813;SDS011;3952;48.364;16.022;2023-04-06T01:22:06;5.57;;;4.90;;
7813;SDS011;3952;48.364;16.022;2023-04-06T01:24:34;5.60;;;5.20;;
7813;SDS011;3952;48.364;16.022;2023-04-06T01:27:02;5.40;;;5.00;;
7813;SDS011;3952;48.364;16.022;2023-04-06T01:29:29;5.30;;;5.00;;
7813;SDS011;3952;48.364;16.022;2023-04-06T01:31:56;5.87;;;5.47;;
7813;SDS011;3952;48.364;16.022;2023-04-06T01:34:23;5.57;;;5.17;;
7813;SDS011;3952;48.364;16.022;2023-04-06T01:36:51;5.60;;;5.10;;
7813;SDS011;3952;48.364;16.022;2023-04-06T01:39:18;6.20;;;5.27;;
7813;SDS011;3952;48.364;16.022;2023-04-06T01:41:47;7.87;;;5.37;;
7813;SDS011;3952;48.364;16.022;2023-04-06T01:44:15;5.93;;;5.43;;
7813;SDS011;3952;48.364;16.022;2023-04-06T01:46:43;6.60;;;6.00;;
7813;SDS011;3952;48.364;16.022;2023-04-06T01:49:10;5.80;;;5.40;;
7813;SDS011;3952;48.364;16.022;2023-04-06T01:51:38;9.20;;;7.53;;
7813;SDS011;3952;48.364;16.022;2023-04-06T01:54:05;6.00;;;5.60;;
7813;SDS011;3952;48.364;16.022;2023-04-06T01:56:32;6.70;;;6.13;;
7813;SDS011;3952;48.364;16.022;2023-04-06T01:59:02;6.50;;;5.97;;
7813;SDS011;3952;48.364;16.022;2023-04-06T02:01:29;6.53;;;6.03;;
7813;SDS011;3952;48.364;16.022;2023-04-06T02:03:56;7.37;;;6.67;;
7813;SDS011;3952;48.364;16.022;2023-04-06T02:06:23;8.30;;;7.53;;
7813;SDS011;3952;48.364;16.022;2023-04-06T02:08:51;7.40;;;6.80;;
7813;SDS011;3952;48.364;16.022;2023-04-06T02:11:19;7.23;;;6.73;;
7813;SDS011;3952;48.364;16.022;2023-04-06T02:13:46;7.77;;;7.17;;
7813;SDS011;3952;48.364;16.022;2023-04-06T02:16:15;7.67;;;7.00;;
7813;SDS011;3952;48.364;16.022;2023-04-06T02:18:42;7.43;;;6.83;;
7813;SDS011;3952;48.364;16.022;2023-04-06T02:21:09;6.50;;;6.00;;
7813;SDS011;3952;48.364;16.022;2023-04-06T02:23:36;6.07;;;5.57;;
7813;SDS011;3952;48.364;16.022;2023-04-06T02:26:04;6.63;;;6.03;;
7813;SDS011;3952;48.364;16.022;2023-04-06T02:28:31;5.60;;;5.20;;
7813;SDS011;3952;48.364;16.022;2023-04-06T02:30:58;5.53;;;4.80;;
7813;SDS011;3952;48.364;16.022;2023-04-06T02:33:27;4.80;;;4.50;;
7813;SDS011;3952;48.364;16.022;2023-04-06T02:35:54;5.13;;;4.77;;
7813;SDS011;3952;48.364;16.022;2023-04-06T02:38:21;5.37;;;4.97;;
7813;SDS011;3952;48.364;16.022;2023-04-06T02:40:49;5.40;;;5.00;;
7813;SDS011;3952;48.364;16.022;2023-04-06T02:43:16;5.50;;;5.20;;
7813;SDS011;3952;48.364;16.022;2023-04-06T02:45:43;4.97;;;4.60;;
7813;SDS011;3952;48.364;16.022;2023-04-06T02:48:10;5.70;;;5.30;;
7813;SDS011;3952;48.364;16.022;2023-04-06T02:50:39;5.43;;;5.03;;
7813;SDS011;3952;48.364;16.022;2023-04-06T02:53:06;5.50;;;5.10;;
7813;SDS011;3952;48.364;16.022;2023-04-06T02:55:33;5.47;;;4.97;;
7813;SDS011;3952;48.364;16.022;2023-04-06T02:58:01;5.40;;;5.10;;
7813;SDS011;3952;48.364;16.022;2023-04-06T03:00:28;5.27;;;4.87;;
7813;SDS011;3952;48.364;16.022;2023-04-06T03:02:55;5.93;;;5.53;;
7813;SDS011;3952;48.364;16.022;2023-04-06T03:05:23;6.00;;;5.60;;
7813;SDS011;3952;48.364;16.022;2023-04-06T03:07:51;5.67;;;5.10;;
7813;SDS011;3952;48.364;16.022;2023-04-06T03:10:19;5.07;;;4.67;;
7813;SDS011;3952;48.364;16.022;2023-04-06T03:12:47;5.47;;;5.07;;
7813;SDS011;3952;48.364;16.022;2023-04-06T03:15:14;5.50;;;5.10;;
7813;SDS011;3952;48.364;16.022;2023-04-06T03:17:42;5.97;;;5.57;;
7813;SDS011;3952;48.364;16.022;2023-04-06T03:20:09;6.30;;;5.70;;
7813;SDS011;3952;48.364;16.022;2023-04-06T03:22:37;6.17;;;5.67;;
7813;SDS011;3952;48.364;16.022;2023-04-06T03:25:06;6.10;;;5.60;;
7813;SDS011;3952;48.364;16.022;2023-04-06T03:27:34;5.67;;;5.27;;
7813;SDS011;3952;48.364;16.022;2023-04-06T03:30:01;6.07;;;5.57;;
7813;SDS011;3952;48.364;16.022;2023-04-06T03:32:28;6.70;;;6.07;;
7813;SDS011;3952;48.364;16.022;2023-04-06T03:34:55;6.33;;;5.83;;
7813;SDS011;3952;48.364;16.022;2023-04-06T03:37:23;8.13;;;7.43;;
7813;SDS011;3952;48.364;16.022;2023-04-06T03:39:50;9.13;;;8.43;;
7813;SDS011;3952;48.364;16.022;2023-04-06T03:42:19;7.93;;;7.30;;
7813;SDS011;3952;48.364;16.022;2023-04-06T03:44:47;10.30;;;7.93;;
7813;SDS011;3952;48.364;16.022;2023-04-06T03:47:14;7.37;;;6.67;;
7813;SDS011;3952;48.364;16.022;2023-04-06T03:49:41;8.37;;;7.67;;
7813;SDS011;3952;48.364;16.022;2023-04-06T03:52:09;8.17;;;7.47;;
7813;SDS011;3952;48.364;16.022;2023-04-06T03:54:36;7.67;;;7.10;;
7813;SDS011;3952;48.364;16.022;2023-04-06T03:57:03;9.43;;;7.27;;
7813;SDS011;3952;48.364;16.022;2023-04-06T03:59:32;7.67;;;7.03;;
7813;SDS011;3952;48.364;16.022;2023-04-06T04:02:00;8.97;;;7.73;;
7813;SDS011;3952;48.364;16.022;2023-04-06T04:04:27;7.77;;;7.17;;
7813;SDS011;3952;48.364;16.022;2023-04-06T04:06:54;8.00;;;7.07;;
7813;SDS011;3952;48.364;16.022;2023-04-06T04:09:22;7.83;;;7.03;;
7813;SDS011;3952;48.364;16.022;2023-04-06T04:11:49;7.27;;;6.67;;
7813;SDS011;3952;48.364;16.022;2023-04-06T04:14:16;6.57;;;6.07;;
7813;SDS011;3952;48.364;16.022;2023-04-06T04:16:45;6.70;;;6.20;;
7813;SDS011;3952;48.364;16.022;2023-04-06T04:19:12;6.40;;;5.90;;
7813;SDS011;3952;48.364;16.022;2023-04-06T04:21:43;7.07;;;6.50;;
7813;SDS011;3952;48.364;16.022;2023-04-06T04:24:11;6.30;;;5.70;;
7813;SDS011;3952;48.364;16.022;2023-04-06T04:26:39;6.23;;;5.70;;
7813;SDS011;3952;48.364;16.022;2023-04-06T04:29:07;6.60;;;6.10;;
7813;SDS011;3952;48.364;16.022;2023-04-06T04:31:34;6.67;;;6.17;;
7813;SDS011;3952;48.364;16.022;2023-04-06T04:34:03;6.87;;;6.27;;
7813;SDS011;3952;48.364;16.022;2023-04-06T04:36:31;6.70;;;6.10;;
7813;SDS011;3952;48.364;16.022;2023-04-06T04:38:59;6.17;;;5.20;;
7813;SDS011;3952;48.364;16.022;2023-04-06T04:41:26;6.10;;;5.50;;
7813;SDS011;3952;48.364;16.022;2023-04-06T04:43:54;6.67;;;5.90;;
7813;SDS011;3952;48.364;16.022;2023-04-06T04:46:21;6.90;;;6.20;;
7813;SDS011;3952;48.364;16.022;2023-04-06T04:48:48;6.80;;;6.30;;
7813;SDS011;3952;48.364;16.022;2023-04-06T04:51:17;9.43;;;6.80;;
7813;SDS011;3952;48.364;16.022;2023-04-06T04:53:44;7.33;;;6.73;;
7813;SDS011;3952;48.364;16.022;2023-04-06T04:56:12;8.27;;;7.30;;
7813;SDS011;3952;48.364;16.022;2023-04-06T04:58:39;6.73;;;6.33;;
7813;SDS011;3952;48.364;16.022;2023-04-06T05:01:06;6.93;;;6.43;;
7813;SDS011;3952;48.364;16.022;2023-04-06T05:03:34;7.30;;;6.73;;
7813;SDS011;3952;48.364;16.022;2023-04-06T05:06:03;8.90;;;8.00;;
7813;SDS011;3952;48.364;16.022;2023-04-06T05:08:32;9.20;;;8.33;;
7813;SDS011;3952;48.364;16.022;2023-04-06T05:11:00;8.53;;;7.73;;
7813;SDS011;3952;48.364;16.022;2023-04-06T05:13:27;9.83;;;7.47;;
7813;SDS011;3952;48.364;16.022;2023-04-06T05:15:56;8.47;;;7.67;;
7813;SDS011;3952;48.364;16.022;2023-04-06T05:18:23;7.97;;;7.23;;
7813;SDS011;3952;48.364;16.022;2023-04-06T05:20:51;14.77;;;11.40;;
7813;SDS011;3952;48.364;16.022;2023-04-06T05:23:19;12.77;;;11.27;;
7813;SDS011;3952;48.364;16.022;2023-04-06T05:25:47;10.70;;;9.17;;
7813;SDS011;3952;48.364;16.022;2023-04-06T05:28:15;8.93;;;8.23;;
7813;SDS011;3952;48.364;16.022;2023-04-06T05:30:42;10.47;;;8.77;;
7813;SDS011;3952;48.364;16.022;2023-04-06T05:33:10;10.63;;;9.03;;
7813;SDS011;3952;48.364;16.022;2023-04-06T05:35:38;10.40;;;8.30;;
7813;SDS011;3952;48.364;16.022;2023-04-06T05:38:07;9.10;;;8.30;;
7813;SDS011;3952;48.364;16.022;2023-04-06T05:40:35;9.70;;;8.80;;
7813;SDS011;3952;48.364;16.022;2023-04-06T05:43:04;8.30;;;7.60;;
7813;SDS011;3952;48.364;16.022;2023-04-06T05:45:32;7.70;;;7.10;;
7813;SDS011;3952;48.364;16.022;2023-04-06T05:48:00;7.70;;;7.10;;
7813;SDS011;3952;48.364;16.022;2023-04-06T05:50:28;7.03;;;6.53;;
7813;SDS011;3952;48.364;16.022;2023-04-06T05:52:55;7.43;;;6.83;;
7813;SDS011;3952;48.364;16.022;2023-04-06T05:55:22;7.07;;;6.60;;
7813;SDS011;3952;48.364;16.022;2023-04-06T05:57:49;6.93;;;6.43;;
7813;SDS011;3952;48.364;16.022;2023-04-06T06:00:18;7.50;;;6.77;;
7813;SDS011;3952;48.364;16.022;2023-04-06T06:02:46;7.60;;;6.90;;
7813;SDS011;3952;48.364;16.022;2023-04-06T06:05:13;8.20;;;7.60;;
7813;SDS011;3952;48.364;16.022;2023-04-06T06:07:40;7.50;;;6.90;;
7813;SDS011;3952;48.364;16.022;2023-04-06T06:10:08;7.80;;;7.10;;
7813;SDS011;3952;48.364;16.022;2023-04-06T06:12:36;8.20;;;7.50;;
7813;SDS011;3952;48.364;16.022;2023-04-06T06:15:04;7.60;;;7.10;;
7813;SDS011;3952;48.364;16.022;2023-04-06T06:17:33;9.10;;;8.30;;
7813;SDS011;3952;48.364;16.022;2023-04-06T06:20:01;9.90;;;8.90;;
7813;SDS011;3952;48.364;16.022;2023-04-06T06:22:28;10.13;;;8.30;;
7813;SDS011;3952;48.364;16.022;2023-04-06T06:24:56;8.50;;;7.73;;
7813;SDS011;3952;48.364;16.022;2023-04-06T06:27:23;8.90;;;8.20;;
7813;SDS011;3952;48.364;16.022;2023-04-06T06:29:50;9.30;;;8.07;;
7813;SDS011;3952;48.364;16.022;2023-04-06T06:32:18;8.30;;;7.60;;
7813;SDS011;3952;48.364;16.022;2023-04-06T06:34:46;8.20;;;7.43;;
7813;SDS011;3952;48.364;16.022;2023-04-06T06:37:14;8.37;;;7.57;;
7813;SDS011;3952;48.364;16.022;2023-04-06T06:39:41;7.70;;;7.00;;
7813;SDS011;3952;48.364;16.022;2023-04-06T06:42:08;7.57;;;6.97;;
7813;SDS011;3952;48.364;16.022;2023-04-06T06:44:35;7.73;;;7.03;;
7813;SDS011;3952;48.364;16.022;2023-04-06T06:47:02;7.13;;;6.53;;
7813;SDS011;3952;48.364;16.022;2023-04-06T06:49:30;7.23;;;6.33;;
7813;SDS011;3952;48.364;16.022;2023-04-06T06:51:58;6.77;;;6.20;;
7813;SDS011;3952;48.364;16.022;2023-04-06T06:54:26;7.00;;;6.40;;
7813;SDS011;3952;48.364;16.022;2023-04-06T06:56:53;7.23;;;6.50;;
7813;SDS011;3952;48.364;16.022;2023-04-06T06:59:20;6.47;;;6.07;;
7813;SDS011;3952;48.364;16.022;2023-04-06T07:01:48;6.97;;;6.27;;
7813;SDS011;3952;48.364;16.022;2023-04-06T07:04:16;7.23;;;6.47;;
7813;SDS011;3952;48.364;16.022;2023-04-06T07:06:43;5.87;;;5.43;;
7813;SDS011;3952;48.364;16.022;2023-04-06T07:09:12;6.67;;;6.17;;
7813;SDS011;3952;48.364;16.022;2023-04-06T07:11:39;6.17;;;5.67;;
7813;SDS011;3952;48.364;16.022;2023-04-06T07:14:07;6.10;;;5.60;;
7813;SDS011;3952;48.364;16.022;2023-04-06T07:16:34;6.33;;;5.93;;
7813;SDS011;3952;48.364;16.022;2023-04-06T07:19:01;6.60;;;5.57;;
7813;SDS011;3952;48.364;16.022;2023-04-06T07:21:29;5.73;;;5.33;;
7813;SDS011;3952;48.364;16.022;2023-04-06T07:23:56;6.03;;;5.57;;
7813;SDS011;3952;48.364;16.022;2023-04-06T07:26:25;6.10;;;5.70;;
7813;SDS011;3952;48.364;16.022;2023-04-06T07:28:52;6.23;;;5.70;;
7813;SDS011;3952;48.364;16.022;2023-04-06T07:31:20;5.60;;;5.20;;
7813;SDS011;3952;48.364;16.022;2023-04-06T07:33:47;5.97;;;5.47;;
7813;SDS011;3952;48.364;16.022;2023-04-06T07:36:15;6.33;;;5.90;;
7813;SDS011;3952;48.364;16.022;2023-04-06T07:38:43;5.90;;;5.40;;
7813;SDS011;3952;48.364;16.022;2023-04-06T07:41:11;6.37;;;5.57;;
7813;SDS011;3952;48.364;16.022;2023-04-06T07:43:39;5.13;;;4.83;;
7813;SDS011;3952;48.364;16.022;2023-04-06T07:46:07;5.77;;;5.37;;
7813;SDS011;3952;48.364;16.022;2023-04-06T07:48:34;6.00;;;5.50;;
7813;SDS011;3952;48.364;16.022;2023-04-06T07:51:02;5.83;;;5.43;;
7813;SDS011;3952;48.364;16.022;2023-04-06T07:53:31;6.10;;;5.70;;
7813;SDS011;3952;48.364;16.022;2023-04-06T07:55:59;5.67;;;5.17;;
7813;SDS011;3952;48.364;16.022;2023-04-06T07:58:26;5.73;;;5.23;;
7813;SDS011;3952;48.364;16.022;2023-04-06T08:00:55;6.63;;;4.83;;
7813;SDS011;3952;48.364;16.022;2023-04-06T08:03:23;5.50;;;5.10;;
7813;SDS011;3952;48.364;16.022;2023-04-06T08:05:51;4.83;;;4.43;;
7813;SDS011;3952;48.364;16.022;2023-04-06T08:08:18;4.57;;;4.17;;
7813;SDS011;3952;48.364;16.022;2023-04-06T08:10:47;4.20;;;3.90;;
7813;SDS011;3952;48.364;16.022;2023-04-06T08:13:15;4.67;;;4.27;;
7813;SDS011;3952;48.364;16.022;2023-04-06T08:15:42;4.80;;;4.40;;
7813;SDS011;3952;48.364;16.022;2023-04-06T08:18:11;4.60;;;4.20;;
7813;SDS011;3952;48.364;16.022;2023-04-06T08:20:38;4.37;;;4.07;;
7813;SDS011;3952;48.364;16.022;2023-04-06T08:23:06;4.40;;;4.10;;
7813;SDS011;3952;48.364;16.022;2023-04-06T08:25:35;5.67;;;4.80;;
7813;SDS011;3952;48.364;16.022;2023-04-06T08:28:02;4.87;;;4.57;;
7813;SDS011;3952;48.364;16.022;2023-04-06T08:30:30;6.20;;;4.53;;
7813;SDS011;3952;48.364;16.022;2023-04-06T08:32:57;5.00;;;4.50;;
7813;SDS011;3952;48.364;16.022;2023-04-06T08:35:26;4.97;;;4.27;;
7813;SDS011;3952;48.364;16.022;2023-04-06T08:37:53;4.43;;;4.03;;
7813;SDS011;3952;48.364;16.022;2023-04-06T08:40:21;5.00;;;4.10;;
7813;SDS011;3952;48.364;16.022;2023-04-06T08:42:49;4.50;;;4.10;;
7813;SDS011;3952;48.364;16.022;2023-04-06T08:45:20;4.97;;;4.63;;
7813;SDS011;3952;48.364;16.022;2023-04-06T08:47:48;3.57;;;3.30;;
7813;SDS011;3952;48.364;16.022;2023-04-06T08:50:17;3.00;;;2.80;;
7813;SDS011;3952;48.364;16.022;2023-04-06T08:52:47;3.17;;;2.83;;
7813;SDS011;3952;48.364;16.022;2023-04-06T08:55:15;2.73;;;2.60;;
7813;SDS011;3952;48.364;16.022;2023-04-06T08:57:43;3.03;;;2.83;;
7813;SDS011;3952;48.364;16.022;2023-04-06T09:00:12;3.20;;;3.00;;
7813;SDS011;3952;48.364;16.022;2023-04-06T09:02:42;3.10;;;2.80;;
7813;SDS011;3952;48.364;16.022;2023-04-06T09:05:11;3.73;;;3.43;;
7813;SDS011;3952;48.364;16.022;2023-04-06T09:07:39;4.40;;;4.00;;
7813;SDS011;3952;48.364;16.022;2023-04-06T09:10:08;4.37;;;4.00;;
7813;SDS011;3952;48.364;16.022;2023-04-06T09:12:36;3.27;;;3.07;;
7813;SDS011;3952;48.364;16.022;2023-04-06T09:15:03;3.63;;;3.33;;
7813;SDS011;3952;48.364;16.022;2023-04-06T09:17:32;3.53;;;3.23;;
7813;SDS011;3952;48.364;16.022;2023-04-06T09:19:59;3.00;;;2.80;;
7813;SDS011;3952;48.364;16.022;2023-04-06T09:22:34;2.87;;;2.67;;
7813;SDS011;3952;48.364;16.022;2023-04-06T09:25:02;3.00;;;2.80;;
7813;SDS011;3952;48.364;16.022;2023-04-06T09:27:33;2.90;;;2.70;;
7813;SDS011;3952;48.364;16.022;2023-04-06T09:30:05;3.00;;;2.80;;
7813;SDS011;3952;48.364;16.022;2023-04-06T09:32:43;3.00;;;2.80;;
7813;SDS011;3952;48.364;16.022;2023-04-06T09:35:12;2.93;;;2.80;;
7813;SDS011;3952;48.364;16.022;2023-04-06T09:37:39;2.60;;;2.50;;
7813;SDS011;3952;48.364;16.022;2023-04-06T09:40:07;2.80;;;2.60;;
7813;SDS011;3952;48.364;16.022;2023-04-06T09:42:36;2.97;;;2.77;;
7813;SDS011;3952;48.364;16.022;2023-04-06T09:45:04;2.77;;;2.60;;
7813;SDS011;3952;48.364;16.022;2023-04-06T09:47:32;3.20;;;3.00;;
7813;SDS011;3952;48.364;16.022;2023-04-06T09:50:02;2.97;;;2.77;;
7813;SDS011;3952;48.364;16.022;2023-04-06T09:52:31;2.77;;;2.57;;
7813;SDS011;3952;48.364;16.022;2023-04-06T09:55:01;3.10;;;2.80;;
7813;SDS011;3952;48.364;16.022;2023-04-06T09:57:31;2.23;;;2.13;;
7813;SDS011;3952;48.364;16.022;2023-04-06T10:00:04;2.30;;;2.20;;
7813;SDS011;3952;48.364;16.022;2023-04-06T10:02:36;2.53;;;2.00;;
7813;SDS011;3952;48.364;16.022;2023-04-06T10:05:14;2.30;;;2.20;;
7813;SDS011;3952;48.364;16.022;2023-04-06T10:07:46;2.47;;;2.33;;
7813;SDS011;3952;48.364;16.022;2023-04-06T10:10:15;2.77;;;2.50;;
7813;SDS011;3952;48.364;16.022;2023-04-06T10:12:43;2.77;;;2.57;;
7813;SDS011;3952;48.364;16.022;2023-04-06T10:15:13;2.67;;;2.57;;
7813;SDS011;3952;48.364;16.022;2023-04-06T10:17:40;2.20;;;2.10;;
7813;SDS011;3952;48.364;16.022;2023-04-06T10:20:09;2.60;;;2.40;;
7813;SDS011;3952;48.364;16.022;2023-04-06T10:22:41;3.03;;;2.73;;
7813;SDS011;3952;48.364;16.022;2023-04-06T10:25:25;3.27;;;2.97;;
7813;SDS011;3952;48.364;16.022;2023-04-06T10:27:58;2.97;;;2.77;;
7813;SDS011;3952;48.364;16.022;2023-04-06T10:30:28;3.17;;;2.87;;
7813;SDS011;3952;48.364;16.022;2023-04-06T10:32:56;2.70;;;2.60;;
7813;SDS011;3952;48.364;16.022;2023-04-06T10:35:23;3.40;;;2.60;;
7813;SDS011;3952;48.364;16.022;2023-04-06T10:38:03;4.17;;;2.80;;
7813;SDS011;3952;48.364;16.022;2023-04-06T10:40:31;2.93;;;2.77;;
7813;SDS011;3952;48.364;16.022;2023-04-06T10:43:07;2.83;;;2.63;;
7813;SDS011;3952;48.364;16.022;2023-04-06T10:45:36;2.80;;;2.60;;
7813;SDS011;3952;48.364;16.022;2023-04-06T10:48:13;2.30;;;2.20;;
7813;SDS011;3952;48.364;16.022;2023-04-06T10:50:42;2.77;;;2.50;;
7813;SDS011;3952;48.364;16.022;2023-04-06T10:53:11;2.30;;;2.20;;
7813;SDS011;3952;48.364;16.022;2023-04-06T10:55:46;2.83;;;2.30;;
7813;SDS011;3952;48.364;16.022;2023-04-06T10:58:15;2.40;;;2.30;;
7813;SDS011;3952;48.364;16.022;2023-04-06T11:00:44;2.47;;;2.37;;
7813;SDS011;3952;48.364;16.022;2023-04-06T11:03:13;2.70;;;2.50;;
7813;SDS011;3952;48.364;16.022;2023-04-06T11:05:43;2.63;;;2.53;;
7813;SDS011;3952;48.364;16.022;2023-04-06T11:08:21;2.53;;;2.43;;
7813;SDS011;3952;48.364;16.022;2023-04-06T11:10:49;2.83;;;2.63;;
7813;SDS011;3952;48.364;16.022;2023-04-06T11:13:16;2.53;;;2.43;;
7813;SDS011;3952;48.364;16.022;2023-04-06T11:15:45;2.60;;;2.50;;
7813;SDS011;3952;48.364;16.022;2023-04-06T11:18:16;3.07;;;2.77;;
7813;SDS011;3952;48.364;16.022;2023-04-06T11:20:47;3.00;;;2.70;;
7813;SDS011;3952;48.364;16.022;2023-04-06T11:23:21;2.67;;;2.57;;
7813;SDS011;3952;48.364;16.022;2023-04-06T11:25:50;2.60;;;2.50;;
7813;SDS011;3952;48.364;16.022;2023-04-06T11:28:18;2.80;;;2.70;;
7813;SDS011;3952;48.364;16.022;2023-04-06T11:30:47;2.80;;;2.60;;
7813;SDS011;3952;48.364;16.022;2023-04-06T11:33:19;2.40;;;2.30;;
7813;SDS011;3952;48.364;16.022;2023-04-06T11:35:47;2.60;;;2.40;;
7813;SDS011;3952;48.364;16.022;2023-04-06T11:38:15;2.63;;;2.47;;
7813;SDS011;3952;48.364;16.022;2023-04-06T11:40:45;3.30;;;2.53;;
7813;SDS011;3952;48.364;16.022;2023-04-06T11:43:12;3.03;;;2.83;;
7813;SDS011;3952;48.364;16.022;2023-04-06T11:45:41;3.33;;;2.40;;
7813;SDS011;3952;48.364;16.022;2023-04-06T11:48:18;2.63;;;2.43;;
7813;SDS011;3952;48.364;16.022;2023-04-06T11:50:48;3.10;;;2.90;;
7813;SDS011;3952;48.364;16.022;2023-04-06T11:53:21;3.17;;;2.97;;
7813;SDS011;3952;48.364;16.022;2023-04-06T11:55:48;2.80;;;2.70;;
7813;SDS011;3952;48.364;16.022;2023-04-06T11:58:15;2.80;;;2.60;;
7813;SDS011;3952;48.364;16.022;2023-04-06T12:00:43;2.80;;;2.70;;
7813;SDS011;3952;48.364;16.022;2023-04-06T12:03:11;3.27;;;2.63;;
7813;SDS011;3952;48.364;16.022;2023-04-06T12:05:40;2.57;;;2.47;;
7813;SDS011;3952;48.364;16.022;2023-04-06T12:08:07;2.63;;;2.50;;
7813;SDS011;3952;48.364;16.022;2023-04-06T12:10:35;3.07;;;2.87;;
7813;SDS011;3952;48.364;16.022;2023-04-06T12:13:02;2.53;;;2.33;;
7813;SDS011;3952;48.364;16.022;2023-04-06T12:15:30;2.73;;;2.63;;
7813;SDS011;3952;48.364;16.022;2023-04-06T12:17:57;3.23;;;2.67;;
7813;SDS011;3952;48.364;16.022;2023-04-06T12:20:25;3.03;;;2.90;;
7813;SDS011;3952;48.364;16.022;2023-04-06T12:22:53;2.70;;;2.50;;
7813;SDS011;3952;48.364;16.022;2023-04-06T12:25:21;3.13;;;2.60;;
7813;SDS011;3952;48.364;16.022;2023-04-06T12:27:48;2.83;;;2.73;;
7813;SDS011;3952;48.364;16.022;2023-04-06T12:30:16;2.50;;;2.40;;
7813;SDS011;3952;48.364;16.022;2023-04-06T12:32:43;2.60;;;2.50;;
7813;SDS011;3952;48.364;16.022;2023-04-06T12:35:10;2.93;;;2.57;;
7813;SDS011;3952;48.364;16.022;2023-04-06T12:37:40;2.77;;;2.67;;
7813;SDS011;3952;48.364;16.022;2023-04-06T12:40:10;3.10;;;2.80;;
7813;SDS011;3952;48.364;16.022;2023-04-06T12:42:40;2.80;;;2.70;;
7813;SDS011;3952;48.364;16.022;2023-04-06T12:45:08;2.57;;;2.47;;
7813;SDS011;3952;48.364;16.022;2023-04-06T12:47:35;3.13;;;2.90;;
7813;SDS011;3952;48.364;16.022;2023-04-06T12:50:03;2.97;;;2.80;;
7813;SDS011;3952;48.364;16.022;2023-04-06T12:52:31;3.30;;;3.00;;
7813;SDS011;3952;48.364;16.022;2023-04-06T12:55:00;3.07;;;2.87;;
7813;SDS011;3952;48.364;16.022;2023-04-06T12:57:29;3.30;;;3.10;;
7813;SDS011;3952;48.364;16.022;2023-04-06T12:59:56;2.90;;;2.70;;
7813;SDS011;3952;48.364;16.022;2023-04-06T13:02:24;3.20;;;3.00;;
7813;SDS011;3952;48.364;16.022;2023-04-06T13:04:52;3.20;;;3.00;;
7813;SDS011;3952;48.364;16.022;2023-04-06T13:07:19;3.20;;;2.90;;
7813;SDS011;3952;48.364;16.022;2023-04-06T13:09:46;4.27;;;4.07;;
7813;SDS011;3952;48.364;16.022;2023-04-06T13:12:14;3.60;;;3.30;;
7813;SDS011;3952;48.364;16.022;2023-04-06T13:14:43;3.47;;;3.17;;
7813;SDS011;3952;48.364;16.022;2023-04-06T13:17:12;3.67;;;3.47;;
7813;SDS011;3952;48.364;16.022;2023-04-06T13:19:40;3.20;;;3.00;;
7813;SDS011;3952;48.364;16.022;2023-04-06T13:22:07;5.13;;;3.47;;
7813;SDS011;3952;48.364;16.022;2023-04-06T13:24:34;3.50;;;3.30;;
7813;SDS011;3952;48.364;16.022;2023-04-06T13:27:01;3.50;;;3.30;;
7813;SDS011;3952;48.364;16.022;2023-04-06T13:29:29;2.70;;;2.50;;
7813;SDS011;3952;48.364;16.022;2023-04-06T13:31:57;2.53;;;2.40;;
7813;SDS011;3952;48.364;16.022;2023-04-06T13:34:25;2.80;;;2.67;;
7813;SDS011;3952;48.364;16.022;2023-04-06T13:36:52;3.30;;;3.10;;
7813;SDS011;3952;48.364;16.022;2023-04-06T13:39:20;3.30;;;3.10;;
7813;SDS011;3952;48.364;16.022;2023-04-06T13:41:47;2.80;;;2.60;;
7813;SDS011;3952;48.364;16.022;2023-04-06T13:44:14;5.23;;;2.90;;
7813;SDS011;3952;48.364;16.022;2023-04-06T13:46:41;3.50;;;3.20;;
7813;SDS011;3952;48.364;16.022;2023-04-06T13:49:10;4.40;;;2.90;;
7813;SDS011;3952;48.364;16.022;2023-04-06T13:51:38;3.53;;;2.80;;
7813;SDS011;3952;48.364;16.022;2023-04-06T13:54:05;3.00;;;2.80;;
7813;SDS011;3952;48.364;16.022;2023-04-06T13:56:32;3.57;;;3.37;;
7813;SDS011;3952;48.364;16.022;2023-04-06T13:58:59;3.13;;;2.93;;
7813;SDS011;3952;48.364;16.022;2023-04-06T14:01:27;3.60;;;3.07;;
7813;SDS011;3952;48.364;16.022;2023-04-06T14:03:54;3.30;;;3.10;;
7813;SDS011;3952;48.364;16.022;2023-04-06T14:06:23;3.23;;;3.03;;
7813;SDS011;3952;48.364;16.022;2023-04-06T14:08:50;3.30;;;3.10;;
7813;SDS011;3952;48.364;16.022;2023-04-06T14:11:18;3.13;;;3.00;;
7813;SDS011;3952;48.364;16.022;2023-04-06T14:13:45;3.40;;;3.20;;
7813;SDS011;3952;48.364;16.022;2023-04-06T14:16:12;3.00;;;2.80;;
7813;SDS011;3952;48.364;16.022;2023-04-06T14:18:40;3.30;;;3.10;;
7813;SDS011;3952;48.364;16.022;2023-04-06T14:21:07;3.37;;;3.17;;
7813;SDS011;3952;48.364;16.022;2023-04-06T14:23:36;3.20;;;3.00;;
7813;SDS011;3952;48.364;16.022;2023-04-06T14:26:04;3.00;;;2.80;;
7813;SDS011;3952;48.364;16.022;2023-04-06T14:28:34;2.70;;;2.60;;
7813;SDS011;3952;48.364;16.022;2023-04-06T14:31:02;3.40;;;3.10;;
7813;SDS011;3952;48.364;16.022;2023-04-06T14:33:36;3.60;;;3.40;;
7813;SDS011;3952;48.364;16.022;2023-04-06T14:36:04;3.17;;;3.00;;
7813;SDS011;3952;48.364;16.022;2023-04-06T14:38:31;3.17;;;2.97;;
7813;SDS011;3952;48.364;16.022;2023-04-06T14:41:01;2.93;;;2.73;;
7813;SDS011;3952;48.364;16.022;2023-04-06T14:43:28;3.20;;;3.00;;
7813;SDS011;3952;48.364;16.022;2023-04-06T14:45:59;3.53;;;2.80;;
7813;SDS011;3952;48.364;16.022;2023-04-06T14:48:27;2.90;;;2.73;;
7813;SDS011;3952;48.364;16.022;2023-04-06T14:50:55;2.90;;;2.80;;
7813;SDS011;3952;48.364;16.022;2023-04-06T14:53:23;2.97;;;2.80;;
7813;SDS011;3952;48.364;16.022;2023-04-06T14:55:51;3.20;;;3.00;;
7813;SDS011;3952;48.364;16.022;2023-04-06T14:58:20;5.40;;;3.10;;
7813;SDS011;3952;48.364;16.022;2023-04-06T15:00:49;3.37;;;3.17;;
7813;SDS011;3952;48.364;16.022;2023-04-06T15:03:23;3.20;;;2.83;;
7813;SDS011;3952;48.364;16.022;2023-04-06T15:05:51;4.87;;;3.20;;